Time;durP1;ratioP1;P1;durP2;ratioP2;P2;SDS_P1;SDS_P2;PMS_P1;PMS_P2;Temp;Humidity;BMP_temperature;BMP_pressure;BME280_temperature;BME280_humidity;BME280_pressure;Samples;Min_cycle;Max_cycle;Signal;HPM_P1;HPM_P2
2022/06/19 00:01:57;;;;;;;3.62;2.00;;;;;;;14.77;83.54;98330.13;1815730;79;21189;-73
2022/06/19 00:04:24;;;;;;;5.03;2.50;;;;;;;14.75;83.66;98326.95;1815690;78;21447;-72
2022/06/19 00:06:50;;;;;;;5.25;2.22;;;;;;;14.75;83.72;98328.30;1815731;79;20927;-72
2022/06/19 00:09:17;;;;;;;7.33;2.95;;;;;;;14.75;83.77;98332.88;1815775;79;20853;-60
2022/06/19 00:11:45;;;;;;;2.65;1.77;;;;;;;14.75;83.77;98324.80;1817016;79;20869;-72
2022/06/19 00:14:12;;;;;;;4.30;2.00;;;;;;;14.73;83.74;98322.42;1815769;78;21218;-63
2022/06/19 00:16:38;;;;;;;3.27;1.95;;;;;;;14.69;83.80;98329.55;1815847;78;20865;-67
2022/06/19 00:19:05;;;;;;;5.95;2.67;;;;;;;14.67;83.91;98329.06;1816031;79;20881;-65
2022/06/19 00:21:32;;;;;;;5.28;2.30;;;;;;;14.63;84.08;98328.06;1816012;78;21005;-67
2022/06/19 00:23:58;;;;;;;5.40;2.00;;;;;;;14.60;84.28;98323.28;1816048;78;20911;-68
2022/06/19 00:26:25;;;;;;;3.77;1.98;;;;;;;14.60;84.32;98326.55;1815933;79;21168;-73
2022/06/19 00:28:51;;;;;;;4.05;2.08;;;;;;;14.58;84.26;98323.38;1815826;78;21005;-68
2022/06/19 00:31:18;;;;;;;3.20;1.95;;;;;;;14.56;84.26;98325.00;1815906;78;20884;-71
2022/06/19 00:33:45;;;;;;;2.70;1.80;;;;;;;14.54;84.36;98327.22;1816086;79;21000;-70
2022/06/19 00:36:21;;;;;;;6.12;2.37;;;;;;;14.53;84.41;98332.92;1816069;78;20916;-73
2022/06/19 00:38:47;;;;;;;3.62;2.33;;;;;;;14.51;84.51;98332.44;1816011;78;21116;-67
2022/06/19 00:41:14;;;;;;;2.40;2.08;;;;;;;14.47;84.44;98330.89;1815835;79;20939;-68
2022/06/19 00:44:06;;;;;;;3.30;2.12;;;;;;;14.36;84.41;98329.02;1815882;79;20955;-73
2022/06/19 00:47:07;;;;;;;5.03;2.00;;;;;;;14.29;84.52;98325.92;1815975;78;20884;-62
2022/06/19 00:49:51;;;;;;;2.67;1.87;;;;;;;14.21;84.68;98324.48;1816312;78;20829;-64
2022/06/19 00:52:25;;;;;;;4.47;2.00;;;;;;;14.16;84.92;98327.30;1815929;79;21111;-71
2022/06/19 00:55:00;;;;;;;3.55;1.92;;;;;;;14.15;85.00;98329.77;1815930;79;20877;-63
2022/06/19 00:57:28;;;;;;;;;;;;;;;14.12;85.02;98331.16;1818665;78;20999;-67
2022/06/19 01:00:03;;;;;;;4.33;2.25;;;;;;;14.09;85.24;98334.45;1815960;79;20419;-67
2022/06/19 01:02:31;;;;;;;4.83;2.20;;;;;;;14.02;85.40;98332.73;1815926;78;20885;-67
2022/06/19 01:04:58;;;;;;;7.05;2.35;;;;;;;13.97;85.48;98328.80;1815992;79;21234;-62
2022/06/19 01:07:26;;;;;;;4.90;2.15;;;;;;;13.90;85.74;98327.62;1758295;79;20868;-68
2022/06/19 01:09:54;;;;;;;3.25;2.10;;;;;;;13.89;86.04;98338.16;1815903;78;20865;-72
2022/06/19 01:12:21;;;;;;;5.33;2.25;;;;;;;13.88;86.28;98341.40;1815957;79;20936;-64
2022/06/19 01:14:48;;;;;;;7.15;2.45;;;;;;;13.85;86.58;98331.22;1815910;78;20881;-64
2022/06/19 01:17:14;;;;;;;4.12;2.33;;;;;;;13.86;86.84;98326.64;1816186;79;21443;-71
2022/06/19 01:19:43;;;;;;;7.55;2.42;;;;;;;13.88;87.00;98323.89;1816210;79;21510;-71
2022/06/19 01:22:38;;;;;;;5.00;1.90;;;;;;;13.92;87.12;98322.75;1815955;78;20896;-62
2022/06/19 01:25:20;;;;;;;3.42;2.15;;;;;;;13.96;87.16;98322.39;1816355;78;20912;-62
2022/06/19 01:30:40;;;;;;;3.58;2.50;;;;;;;13.93;87.30;98308.98;1815853;78;21119;-72
2022/06/19 01:33:11;;;;;;;6.53;2.40;;;;;;;13.93;87.35;98308.98;1815871;78;20842;-67
2022/06/19 01:35:38;;;;;;;5.90;2.72;;;;;;;13.92;87.45;98301.21;1816187;78;21428;-67
2022/06/19 01:38:12;;;;;;;3.08;2.42;;;;;;;13.92;87.51;98301.21;1816271;79;21353;-56
2022/06/19 01:40:41;;;;;;;4.70;2.10;;;;;;;13.92;87.57;98305.25;1816652;78;20892;-71
2022/06/19 01:43:08;;;;;;;5.50;2.22;;;;;;;13.90;87.64;98300.70;1815848;79;21176;-69
2022/06/19 01:45:36;;;;;;;4.45;2.45;;;;;;;13.89;87.71;98299.92;1804835;79;20912;-71
2022/06/19 01:48:02;;;;;;;4.15;2.37;;;;;;;13.92;87.79;98301.21;1815936;78;20928;-70
2022/06/19 01:50:30;;;;;;;2.83;2.10;;;;;;;13.92;87.72;98306.59;1815784;79;21514;-69
2022/06/19 01:53:02;;;;;;;4.05;2.15;;;;;;;13.93;87.69;98300.09;1816155;78;20912;-63
2022/06/19 01:55:29;;;;;;;4.05;2.50;;;;;;;13.93;87.63;98306.83;1815981;79;21115;-66
2022/06/19 01:57:56;;;;;;;3.25;2.47;;;;;;;13.92;87.64;98310.06;1815722;78;20981;-65
2022/06/19 02:00:27;;;;;;;6.00;2.30;;;;;;;13.91;87.70;98311.19;1815828;79;20910;-66
2022/06/19 02:03:05;;;;;;;4.70;2.30;;;;;;;13.90;87.70;98307.42;1816042;79;21249;-66
2022/06/19 02:05:33;;;;;;;3.42;2.33;;;;;;;13.89;87.70;98299.13;1815980;79;20971;-66
2022/06/19 02:08:00;;;;;;;3.22;2.10;;;;;;;13.88;87.67;98294.28;1816133;78;21509;-70
2022/06/19 02:10:26;;;;;;;3.52;2.33;;;;;;;13.88;87.66;98298.31;1815728;79;20865;-66
2022/06/19 02:12:53;;;;;;;4.10;2.27;;;;;;;13.90;87.67;98298.00;1815822;79;21045;-70
2022/06/19 02:15:20;;;;;;;2.85;2.55;;;;;;;13.93;87.49;98296.86;1815814;78;20947;-69
2022/06/19 02:17:50;;;;;;;4.22;2.30;;;;;;;13.95;87.30;98296.55;1816159;78;21383;-62
2022/06/19 02:20:18;;;;;;;2.22;2.00;;;;;;;13.96;87.19;98294.11;1815918;79;21226;-70
2022/06/19 02:22:45;;;;;;;3.37;2.17;;;;;;;13.95;87.00;98287.92;1815749;79;20868;-65
2022/06/19 02:25:11;;;;;;;4.10;2.00;;;;;;;13.95;86.92;98281.73;1816118;79;21450;-70
2022/06/19 02:27:38;;;;;;;3.87;2.30;;;;;;;13.95;86.86;98288.47;1815898;79;20969;-61
2022/06/19 02:30:10;;;;;;;3.77;2.45;;;;;;;13.97;86.75;98286.26;1815830;78;20904;-62
2022/06/19 02:32:43;;;;;;;2.87;2.22;;;;;;;13.98;86.58;98286.52;1815942;78;21088;-62
2022/06/19 02:35:19;;;;;;;3.90;2.12;;;;;;;13.97;86.49;98284.37;1815751;79;20896;-66
2022/06/19 02:37:53;;;;;;;4.05;2.08;;;;;;;13.97;86.35;98290.30;1816097;79;20907;-65
2022/06/19 02:40:41;;;;;;;5.20;2.40;;;;;;;13.95;86.29;98290.61;1815433;78;20856;-68
2022/06/19 02:43:18;;;;;;;2.95;2.30;;;;;;;13.97;86.18;98283.02;1815937;79;20903;-71
2022/06/19 02:45:44;;;;;;;2.75;2.17;;;;;;;14.05;86.06;98281.50;1815806;79;21067;-66
2022/06/19 02:48:28;;;;;;;3.62;2.17;;;;;;;14.10;85.93;98280.05;1815813;79;20908;-63
2022/06/19 02:50:56;;;;;;;4.30;2.22;;;;;;;14.13;85.71;98280.21;1809456;78;20915;-69
2022/06/19 02:53:23;;;;;;;3.92;2.17;;;;;;;14.19;85.45;98283.59;1816139;79;21023;-66
2022/06/19 02:55:50;;;;;;;3.47;2.40;;;;;;;14.22;85.14;98288.38;1815865;78;21027;-66
2022/06/19 02:58:19;;;;;;;3.30;2.22;;;;;;;14.27;84.96;98285.56;1827022;78;22141;-71
2022/06/19 03:00:49;;;;;;;4.28;2.10;;;;;;;14.30;84.83;98282.27;1827541;78;21410;-66
2022/06/19 03:03:35;;;;;;;3.77;2.12;;;;;;;14.33;84.60;98277.62;1827319;78;20872;-71
2022/06/19 03:06:03;;;;;;;8.78;2.80;;;;;;;14.40;84.49;98282.02;1827282;78;20986;-59
2022/06/19 03:08:31;;;;;;;3.25;2.30;;;;;;;14.45;84.34;98276.52;1827651;78;20927;-62
2022/06/19 03:10:58;;;;;;;4.58;2.35;;;;;;;14.51;84.12;98273.14;1827282;78;21243;-66
2022/06/19 03:13:26;;;;;;;4.33;2.15;;;;;;;14.55;83.84;98275.45;1827330;78;20861;-69
2022/06/19 03:16:04;;;;;;;4.33;2.00;;;;;;;14.60;83.61;98278.80;1827276;78;20857;-66
2022/06/19 03:18:31;;;;;;;2.83;2.10;;;;;;;14.65;83.33;98263.84;1827385;78;21520;-61
2022/06/19 03:20:57;;;;;;;3.42;1.98;;;;;;;14.73;82.96;98260.41;1827421;78;20895;-61
2022/06/19 03:23:24;;;;;;;2.70;2.25;;;;;;;14.80;82.66;98263.45;1827288;78;21108;-66
2022/06/19 03:25:51;;;;;;;3.80;2.00;;;;;;;14.85;82.45;98266.02;1827314;78;20970;-66
2022/06/19 03:28:19;;;;;;;3.42;2.00;;;;;;;14.92;82.15;98275.00;1809274;78;20948;-65
2022/06/19 03:30:53;;;;;;;4.92;2.10;;;;;;;14.97;82.02;98272.17;1827346;78;20884;-68
2022/06/19 03:33:20;;;;;;;2.72;1.80;;;;;;;15.03;81.67;98275.76;1827413;78;20959;-70
2022/06/19 03:35:46;;;;;;;3.83;1.82;;;;;;;15.10;81.32;98276.65;1827390;78;21066;-61
2022/06/19 03:38:13;;;;;;;3.65;2.12;;;;;;;15.16;81.06;98270.02;1827207;78;20991;-61
2022/06/19 03:40:39;;;;;;;4.62;1.90;;;;;;;15.24;80.64;98273.86;1827385;78;20833;-63
2022/06/19 03:43:06;;;;;;;3.45;2.17;;;;;;;15.32;80.15;98280.62;1827752;78;20888;-70
2022/06/19 03:45:32;;;;;;;2.42;1.90;;;;;;;15.36;79.90;98283.47;1827632;78;21415;-63
2022/06/19 03:47:59;;;;;;;3.58;2.27;;;;;;;15.42;79.63;98282.23;1827269;78;21116;-61
2022/06/19 03:50:27;;;;;;;3.42;2.05;;;;;;;15.44;79.39;98278.66;1827257;78;20892;-65
2022/06/19 03:52:54;;;;;;;3.87;1.87;;;;;;;15.49;79.24;98282.59;1827274;78;20896;-60
2022/06/19 03:55:23;;;;;;;3.00;1.90;;;;;;;15.54;79.05;98274.35;1827175;78;20998;-62
2022/06/19 03:57:50;;;;;;;2.55;1.92;;;;;;;15.62;78.75;98272.20;1827229;78;21224;-67
2022/06/19 04:00:18;;;;;;;4.05;2.02;;;;;;;15.71;78.44;98280.55;1827379;78;21234;-72
2022/06/19 04:02:46;;;;;;;3.95;1.80;;;;;;;15.79;78.19;98278.98;1827293;78;20868;-63
2022/06/19 04:05:13;;;;;;;6.40;2.33;;;;;;;15.87;77.85;98275.50;1827380;78;20888;-71
2022/06/19 04:07:45;;;;;;;4.90;2.10;;;;;;;15.90;77.57;98269.44;1827341;78;20950;-65
2022/06/19 04:10:15;;;;;;;2.30;1.90;;;;;;;15.95;77.50;98261.19;1827251;78;20992;-67
2022/06/19 04:12:41;;;;;;;3.02;1.98;;;;;;;16.01;77.36;98268.03;1827240;78;21214;-62
2022/06/19 04:15:10;;;;;;;4.60;1.82;;;;;;;16.07;77.36;98276.20;1827310;78;20832;-65
2022/06/19 04:17:39;;;;;;;3.87;1.95;;;;;;;16.14;77.32;98277.87;1827285;78;21414;-70
2022/06/19 04:20:07;;;;;;;3.67;1.60;;;;;;;16.21;77.01;98276.83;1827346;78;20915;-62
2022/06/19 04:22:35;;;;;;;2.05;1.50;;;;;;;16.30;76.62;98268.15;1809214;78;20963;-69
2022/06/19 04:25:03;;;;;;;5.65;1.70;;;;;;;16.38;76.25;98272.76;1827242;78;21223;-67
2022/06/19 04:27:31;;;;;;;2.95;1.95;;;;;;;16.47;76.13;98274.64;1827589;78;21398;-71
2022/06/19 04:29:58;;;;;;;4.17;1.70;;;;;;;16.56;75.63;98275.47;1827553;77;21435;-67
2022/06/19 04:32:25;;;;;;;3.52;2.00;;;;;;;16.63;75.48;98275.77;1827217;78;20904;-69
2022/06/19 04:34:51;;;;;;;2.40;1.55;;;;;;;16.70;75.45;98272.78;1828258;78;21446;-57
2022/06/19 04:37:18;;;;;;;1.95;1.40;;;;;;;16.77;75.11;98276.36;1827472;78;21206;-69
2022/06/19 04:39:44;;;;;;;5.15;1.65;;;;;;;16.84;74.64;98272.60;1827269;78;20916;-66
2022/06/19 04:42:11;;;;;;;3.17;1.62;;;;;;;16.95;74.33;98269.77;1827231;78;20950;-61
2022/06/19 04:44:37;;;;;;;3.37;1.70;;;;;;;17.05;74.14;98274.82;1827334;78;20880;-66
2022/06/19 04:47:04;;;;;;;1.77;1.50;;;;;;;17.16;73.76;98274.69;1827381;78;20912;-70
2022/06/19 04:49:31;;;;;;;3.05;1.52;;;;;;;17.26;72.87;98278.39;1827616;78;23231;-60
2022/06/19 04:51:58;;;;;;;4.85;1.70;;;;;;;17.35;72.06;98271.56;1827807;78;21355;-67
2022/06/19 04:54:24;;;;;;;3.12;1.62;;;;;;;17.46;71.42;98280.33;1827238;78;21031;-69
2022/06/19 04:56:51;;;;;;;2.75;1.50;;;;;;;17.52;71.15;98284.45;1826006;78;21488;-62
2022/06/19 04:59:18;;;;;;;2.90;1.70;;;;;;;17.58;70.59;98289.93;1815861;78;20860;-67
2022/06/19 05:01:45;;;;;;;4.35;1.90;;;;;;;17.64;69.87;98287.25;1815753;78;21235;-64
2022/06/19 05:04:12;;;;;;;4.08;1.60;;;;;;;17.71;70.18;98285.39;1803369;78;20971;-71
2022/06/19 05:06:39;;;;;;;2.70;1.70;;;;;;;17.78;69.60;98290.50;1815855;79;20904;-64
2022/06/19 05:09:06;;;;;;;1.42;1.20;;;;;;;17.86;69.76;98295.63;1815967;78;20853;-71
2022/06/19 05:11:33;;;;;;;2.40;1.40;;;;;;;17.94;69.32;98288.02;1815844;79;20924;-69
2022/06/19 05:14:01;;;;;;;3.52;1.40;;;;;;;18.06;69.13;98290.79;1816045;79;21815;-62
2022/06/19 05:16:30;;;;;;;3.00;1.30;;;;;;;18.18;68.80;98283.27;1815802;78;20896;-66
2022/06/19 05:18:57;;;;;;;3.58;1.50;;;;;;;18.30;68.33;98276.55;1815961;78;20865;-61
2022/06/19 05:21:25;;;;;;;3.20;1.45;;;;;;;18.43;67.86;98276.81;1815841;79;20924;-63
2022/06/19 05:23:53;;;;;;;4.20;1.90;;;;;;;18.53;67.20;98280.50;1815855;78;20974;-66
2022/06/19 05:26:33;;;;;;;2.10;1.65;;;;;;;18.62;66.75;98281.20;1815942;78;20987;-66
2022/06/19 05:29:00;;;;;;;2.12;1.30;;;;;;;18.73;66.54;98282.91;1815825;78;20892;-69
2022/06/19 05:31:27;;;;;;;3.22;1.67;;;;;;;18.83;65.83;98272.42;1815800;79;21361;-66
2022/06/19 05:33:54;;;;;;;6.53;1.45;;;;;;;18.93;65.45;98267.12;1815836;79;20959;-59
2022/06/19 05:36:21;;;;;;;2.42;1.40;;;;;;;19.01;64.78;98271.08;1815952;79;21023;-61
2022/06/19 05:38:50;;;;;;;4.58;1.27;;;;;;;19.04;64.38;98271.77;1815926;79;21111;-63
2022/06/19 05:41:16;;;;;;;2.92;1.30;;;;;;;19.10;64.29;98273.12;1815964;79;21387;-61
2022/06/19 05:43:43;;;;;;;5.17;1.60;;;;;;;19.16;64.08;98270.18;1815924;79;20903;-69
2022/06/19 05:46:15;;;;;;;1.98;1.50;;;;;;;19.23;64.13;98271.77;1816106;78;20929;-63
2022/06/19 05:48:42;;;;;;;2.35;1.40;;;;;;;19.30;64.15;98268.72;1815972;79;20916;-67
2022/06/19 05:51:16;;;;;;;2.30;1.42;;;;;;;19.33;63.69;98269.97;1815903;79;21223;-69
2022/06/19 05:53:47;;;;;;;5.50;1.80;;;;;;;19.37;63.32;98266.81;1811876;78;20974;-62
2022/06/19 05:56:15;;;;;;;4.03;1.50;;;;;;;19.42;63.35;98268.75;1815933;79;20852;-68
2022/06/19 05:58:42;;;;;;;3.27;1.70;;;;;;;19.49;63.29;98264.09;1815738;78;20955;-67
2022/06/19 06:01:11;;;;;;;3.37;1.60;;;;;;;19.57;63.41;98264.55;1815925;78;21541;-66
2022/06/19 06:03:38;;;;;;;4.08;1.60;;;;;;;19.63;62.67;98263.16;1804951;79;21793;-72
2022/06/19 06:06:07;;;;;;;3.42;1.77;;;;;;;19.69;63.25;98260.42;1815731;79;20951;-70
2022/06/19 06:08:36;;;;;;;3.87;1.72;;;;;;;19.77;63.02;98260.88;1816297;78;20861;-66
2022/06/19 06:11:03;;;;;;;4.47;1.85;;;;;;;19.86;62.57;98266.97;1815817;79;20979;-66
2022/06/19 06:13:30;;;;;;;4.33;2.00;;;;;;;19.93;62.52;98252.22;1815882;79;20959;-67
2022/06/19 06:15:57;;;;;;;2.90;1.62;;;;;;;20.02;61.96;98257.53;1815899;79;21180;-70
2022/06/19 06:18:29;;;;;;;3.62;1.70;;;;;;;20.11;61.88;98248.66;1815821;78;20865;-67
2022/06/19 06:21:00;;;;;;;4.10;1.90;;;;;;;20.19;61.13;98248.50;1815898;79;20865;-70
2022/06/19 06:23:27;;;;;;;6.67;1.80;;;;;;;20.27;60.34;98243.52;1815788;79;20966;-69
2022/06/19 06:26:03;;;;;;;4.60;1.80;;;;;;;20.37;61.13;98244.36;1815811;78;20962;-67
2022/06/19 06:28:31;;;;;;;3.58;1.90;;;;;;;20.48;61.12;98242.50;1815901;79;21807;-69
2022/06/19 06:30:58;;;;;;;3.58;1.57;;;;;;;20.58;60.58;98244.72;1815686;79;21357;-62
2022/06/19 06:33:25;;;;;;;5.12;1.98;;;;;;;20.68;61.21;98242.86;1815987;78;20932;-69
2022/06/19 06:35:52;;;;;;;3.95;1.60;;;;;;;20.75;60.16;98240.31;1815901;79;20924;-61
2022/06/19 06:38:19;;;;;;;5.75;1.65;;;;;;;20.83;60.03;98250.22;1815936;79;21439;-70
2022/06/19 06:40:47;;;;;;;3.00;1.65;;;;;;;20.93;59.64;98237.45;1816018;78;21969;-61
2022/06/19 06:43:13;;;;;;;3.75;1.82;;;;;;;21.01;59.04;98239.99;1816024;79;21450;-66
2022/06/19 06:45:39;;;;;;;3.30;1.55;;;;;;;21.10;59.09;98235.18;1815885;79;20941;-72
2022/06/19 06:48:06;;;;;;;5.33;1.70;;;;;;;21.20;59.01;98235.22;1804726;79;20845;-66
2022/06/19 06:50:33;;;;;;;2.67;1.62;;;;;;;21.24;58.85;98233.39;1815862;79;20983;-67
2022/06/19 06:53:00;;;;;;;3.05;1.47;;;;;;;21.32;58.57;98232.39;1815758;79;21117;-71
2022/06/19 06:55:26;;;;;;;4.55;1.55;;;;;;;21.41;58.06;98241.75;1815796;79;20821;-66
2022/06/19 06:57:53;;;;;;;3.30;1.65;;;;;;;21.49;58.26;98236.66;1815800;78;20877;-63
2022/06/19 07:00:21;;;;;;;2.45;1.37;;;;;;;21.59;58.48;98230.67;1815885;79;20947;-65
2022/06/19 07:02:50;;;;;;;3.20;1.60;;;;;;;21.67;58.26;98230.45;1815781;79;21414;-68
2022/06/19 07:05:17;;;;;;;4.42;1.50;;;;;;;21.77;58.24;98228.54;1815813;78;21106;-66
2022/06/19 07:07:43;;;;;;;3.25;1.50;;;;;;;21.85;57.05;98236.33;1815710;78;20955;-69
2022/06/19 07:10:12;;;;;;;3.15;1.65;;;;;;;21.92;55.79;98228.86;1815809;78;20944;-63
2022/06/19 07:12:39;;;;;;;3.45;1.62;;;;;;;21.99;55.83;98227.65;1815830;78;20928;-68
2022/06/19 07:15:09;;;;;;;3.92;1.70;;;;;;;22.03;54.80;98225.77;1815879;78;20829;-64
2022/06/19 07:17:36;;;;;;;2.70;1.52;;;;;;;22.12;55.47;98229.06;1815859;79;21218;-72
2022/06/19 07:20:04;;;;;;;3.08;1.70;;;;;;;22.16;53.78;98224.50;1815776;79;20959;-66
2022/06/19 07:22:31;;;;;;;4.25;1.35;;;;;;;22.26;55.28;98227.98;1815724;79;20990;-61
2022/06/19 07:24:58;;;;;;;3.12;1.60;;;;;;;22.34;53.60;98228.34;1815684;79;20908;-66
2022/06/19 07:27:24;;;;;;;2.87;1.45;;;;;;;22.43;54.01;98220.72;1815879;79;20884;-62
2022/06/19 07:29:50;;;;;;;3.42;1.47;;;;;;;22.55;54.48;98225.21;1815815;78;21246;-64
2022/06/19 07:32:17;;;;;;;2.47;1.40;;;;;;;22.67;55.02;98220.41;1816209;79;21379;-69
2022/06/19 07:34:43;;;;;;;2.30;1.55;;;;;;;22.75;54.88;98215.27;1815806;79;21332;-66
2022/06/19 07:37:13;;;;;;;4.37;1.47;;;;;;;22.84;54.50;98212.31;1815709;79;21015;-62
2022/06/19 07:39:40;;;;;;;3.67;1.50;;;;;;;22.91;54.41;98212.42;1815679;78;20880;-63
2022/06/19 07:42:12;;;;;;;1.40;1.20;;;;;;;22.98;54.25;98214.70;1815732;79;21112;-63
2022/06/19 07:44:39;;;;;;;3.47;1.57;;;;;;;23.08;54.21;98216.80;1815594;79;37612;-69
2022/06/19 07:50:17;;;;;;;3.70;1.40;;;;;;;23.23;52.42;98212.91;1815800;79;20928;-64
2022/06/19 07:52:44;;;;;;;5.12;1.42;;;;;;;23.27;52.15;98211.05;1815787;78;21450;-70
2022/06/19 07:55:16;;;;;;;2.40;1.20;;;;;;;23.32;51.36;98214.84;1815727;79;21159;-61
2022/06/19 07:57:43;;;;;;;1.32;1.10;;;;;;;23.37;51.39;98209.05;1815759;78;20956;-63
2022/06/19 08:00:16;;;;;;;2.92;1.35;;;;;;;23.44;52.89;98201.75;1815756;79;20979;-64
2022/06/19 08:02:48;;;;;;;6.05;1.72;;;;;;;23.51;49.65;98199.12;1815830;78;20942;-62
2022/06/19 08:05:19;;;;;;;2.12;1.40;;;;;;;23.55;49.48;98193.72;1816148;79;20862;-69
2022/06/19 08:07:48;;;;;;;4.58;1.40;;;;;;;23.59;50.21;98197.27;1815712;78;20872;-69
2022/06/19 08:10:22;;;;;;;1.52;1.10;;;;;;;23.65;50.01;98190.31;1815757;79;20951;-62
2022/06/19 08:12:51;;;;;;;2.25;1.20;;;;;;;23.70;49.96;98194.89;1815822;78;21490;-63
2022/06/19 08:15:19;;;;;;;3.15;1.15;;;;;;;23.74;48.95;98199.05;1815772;78;20881;-70
2022/06/19 08:17:48;;;;;;;2.92;1.35;;;;;;;23.78;48.92;98193.83;1815795;78;20864;-69
2022/06/19 08:20:16;;;;;;;2.67;1.40;;;;;;;23.84;49.10;98202.48;1815891;79;21075;-68
2022/06/19 08:22:43;;;;;;;4.62;1.40;;;;;;;23.93;49.34;98201.61;1815703;79;20909;-63
2022/06/19 08:25:12;;;;;;;2.35;1.30;;;;;;;23.99;49.47;98197.40;1815716;78;20861;-62
2022/06/19 08:27:42;;;;;;;2.55;1.17;;;;;;;24.10;49.38;98201.64;1815703;79;20900;-62
2022/06/19 08:30:16;;;;;;;2.25;1.10;;;;;;;24.18;48.30;98201.38;1815711;78;20972;-69
2022/06/19 08:32:43;;;;;;;4.37;1.60;;;;;;;24.24;48.62;98201.23;1815849;79;22017;-70
2022/06/19 08:35:09;;;;;;;4.67;1.37;;;;;;;24.33;48.82;98199.58;1815646;78;20825;-70
2022/06/19 08:37:37;;;;;;;2.20;1.47;;;;;;;24.36;48.54;98198.23;1815965;78;20900;-62
2022/06/19 08:40:09;;;;;;;3.08;1.40;;;;;;;24.42;48.09;98199.45;1816125;79;20986;-70
2022/06/19 08:42:54;;;;;;;2.85;1.35;;;;;;;24.49;47.36;98198.77;1816171;79;20861;-64
2022/06/19 08:46:00;;;;;;;2.70;1.30;;;;;;;24.53;47.45;98193.30;1787375;78;21113;-70
2022/06/19 08:49:03;;;;;;;1.60;1.10;;;;;;;24.56;47.58;98194.73;1816043;79;21379;-66
2022/06/19 08:52:08;;;;;;;2.50;1.20;;;;;;;24.66;48.37;98193.25;1810110;79;21349;-69
2022/06/19 08:54:43;;;;;;;4.65;1.55;;;;;;;24.74;47.92;98193.50;1815952;78;20916;-63
2022/06/19 08:57:31;;;;;;;1.60;1.22;;;;;;;24.87;48.33;98202.45;1816057;78;21396;-68
2022/06/19 09:00:19;;;;;;;2.67;1.27;;;;;;;24.96;48.39;98191.19;1826047;78;21240;-62
2022/06/19 09:03:05;;;;;;;3.30;1.42;;;;;;;25.04;45.66;98191.42;1827322;78;20938;-70
2022/06/19 09:05:47;;;;;;;;;;;;;;;25.05;46.18;98195.75;1830205;78;20904;-69
2022/06/19 09:08:47;;;;;;;1.67;1.05;;;;;;;25.11;46.67;98202.44;1827527;78;20390;-67
2022/06/19 09:11:34;;;;;;;2.52;1.50;;;;;;;25.18;46.30;98203.10;1827373;78;21049;-62
2022/06/19 09:14:56;;;;;;;2.62;1.40;;;;;;;25.28;44.45;98201.00;1827508;78;21110;-66
2022/06/19 09:17:29;;;;;;;3.02;1.40;;;;;;;25.32;45.61;98203.20;1827307;78;20962;-70
2022/06/19 09:20:10;;;;;;;2.12;1.20;;;;;;;25.36;43.17;98199.31;1827895;78;20903;-64
2022/06/19 09:22:48;;;;;;;2.20;1.10;;;;;;;25.39;42.50;98193.65;1827320;78;20844;-62
2022/06/19 09:25:38;;;;;;;3.12;1.55;;;;;;;25.41;42.60;98198.95;1827506;78;20966;-63
2022/06/19 09:28:13;;;;;;;4.03;1.40;;;;;;;25.44;43.54;98196.83;1827483;78;21231;-71
2022/06/19 09:30:54;;;;;;;2.77;1.30;;;;;;;25.54;44.91;98188.46;1827699;78;20860;-66
2022/06/19 09:33:43;;;;;;;1.85;1.30;;;;;;;25.62;43.67;98190.88;1827397;78;21447;-66
2022/06/19 09:36:30;;;;;;;4.00;1.40;;;;;;;25.80;44.49;98191.74;1805123;78;21000;-62
2022/06/19 09:39:25;;;;;;;2.83;1.17;;;;;;;25.80;44.49;98191.74;1827483;78;21390;-67
2022/06/19 09:42:00;;;;;;;3.90;1.50;;;;;;;26.10;43.06;98185.17;1827372;78;21052;-66
2022/06/19 09:44:51;;;;;;;2.35;1.37;;;;;;;26.14;42.41;98183.28;1827430;78;21032;-68
2022/06/19 09:47:32;;;;;;;3.70;1.35;;;;;;;26.14;42.41;98183.28;1827579;78;20849;-69
2022/06/19 09:50:10;;;;;;;5.00;1.40;;;;;;;26.15;42.12;98188.95;1827691;78;21410;-64
2022/06/19 09:52:41;;;;;;;2.40;1.42;;;;;;;26.15;42.52;98182.88;1801544;78;20875;-72
2022/06/19 09:55:13;;;;;;;3.02;1.60;;;;;;;26.17;42.13;98189.34;1827387;78;21227;-63
2022/06/19 09:58:06;;;;;;;3.27;1.50;;;;;;;26.23;43.66;98179.57;1827424;78;20852;-63
2022/06/19 10:00:34;;;;;;;2.90;1.12;;;;;;;26.33;41.29;98184.31;1827490;78;21439;-63
2022/06/19 10:03:23;;;;;;;5.55;1.27;;;;;;;26.39;42.25;98175.30;1827756;78;21394;-67
2022/06/19 10:06:14;;;;;;;2.17;1.20;;;;;;;26.46;42.66;98166.28;1827413;78;21419;-71
2022/06/19 10:08:46;;;;;;;2.92;1.40;;;;;;;26.61;42.26;98173.38;1827471;78;21858;-68
2022/06/19 10:11:17;;;;;;;2.63;1.13;;;;;;;26.70;40.99;98171.60;1827527;78;20904;-61
2022/06/19 10:14:13;;;;;;;3.37;1.25;;;;;;;26.72;41.87;98179.65;1827774;78;20888;-66
2022/06/19 10:17:20;;;;;;;4.17;1.30;;;;;;;26.77;40.98;98184.79;1827423;78;20872;-71
2022/06/19 10:20:14;;;;;;;2.70;1.10;;;;;;;26.79;40.74;98185.18;1827341;78;20856;-62
2022/06/19 10:23:17;;;;;;;2.67;1.45;;;;;;;26.72;39.73;98179.65;1827343;78;21106;-72
2022/06/19 10:26:00;;;;;;;2.25;1.50;;;;;;;26.65;39.01;98176.90;1827333;78;20864;-66
2022/06/19 10:28:44;;;;;;;3.60;1.57;;;;;;;26.70;41.26;98175.14;1827484;78;20868;-66
2022/06/19 10:31:28;;;;;;;4.42;1.30;;;;;;;26.80;40.89;98178.52;1827545;78;21062;-62
2022/06/19 10:34:48;;;;;;;2.92;1.20;;;;;;;26.88;41.97;98174.58;1827325;78;20872;-70
2022/06/19 10:37:42;;;;;;;5.45;1.40;;;;;;;26.98;41.84;98173.80;1827245;78;21115;-61
2022/06/19 10:40:43;;;;;;;3.40;1.00;;;;;;;27.03;40.72;98162.41;1818478;78;20915;-63
2022/06/19 10:43:24;;;;;;;2.67;1.37;;;;;;;27.01;39.52;98167.52;1827297;78;20899;-67
2022/06/19 10:45:56;;;;;;;4.08;1.45;;;;;;;26.95;40.65;98164.95;1827313;78;20986;-69
2022/06/19 10:48:45;;;;;;;2.62;1.42;;;;;;;26.98;41.07;98162.80;1827716;78;21434;-62
2022/06/19 10:51:45;;;;;;;2.40;1.42;;;;;;;27.03;40.63;98158.87;1827282;78;22120;-62
2022/06/19 10:54:29;;;;;;;6.97;1.57;;;;;;;27.03;40.63;98162.99;1827431;78;21403;-66
2022/06/19 10:57:37;;;;;;;1.92;1.07;;;;;;;27.05;41.11;98158.67;1827486;78;20873;-69
2022/06/19 11:00:06;;;;;;;5.10;1.30;;;;;;;27.10;39.82;98162.98;1827389;78;20943;-71
2022/06/19 11:05:38;;;;;;;2.12;1.37;;;;;;;27.07;40.41;98175.55;1827401;78;21101;-64
2022/06/19 11:08:04;;;;;;;2.35;1.40;;;;;;;27.09;39.77;98158.07;1826393;78;20971;-66
2022/06/19 11:10:43;;;;;;;2.20;1.30;;;;;;;27.11;39.34;98159.83;1827244;78;20837;-71
2022/06/19 11:13:11;;;;;;;4.40;1.32;;;;;;;27.12;39.31;98155.91;1827296;78;20845;-72
2022/06/19 11:15:43;;;;;;;3.62;2.02;;;;;;;27.14;39.67;98154.92;1827389;78;21395;-70
2022/06/19 11:18:20;;;;;;;3.37;1.47;;;;;;;27.20;39.25;98151.78;1827377;78;21886;-66
2022/06/19 11:21:12;;;;;;;2.83;1.40;;;;;;;27.23;40.11;98151.00;1827606;78;20869;-69
2022/06/19 11:23:51;;;;;;;3.67;1.37;;;;;;;27.31;39.57;98147.83;1827283;78;20907;-64
2022/06/19 11:26:38;;;;;;;3.62;1.62;;;;;;;27.41;39.89;98149.02;1827712;78;21382;-67
2022/06/19 11:29:18;;;;;;;3.98;1.20;;;;;;;27.51;39.15;98139.95;1827443;78;20908;-64
2022/06/19 11:32:09;;;;;;;5.58;1.50;;;;;;;27.63;38.37;98146.38;1827249;78;21060;-70
2022/06/19 11:34:44;;;;;;;3.77;1.37;;;;;;;27.73;37.87;98139.47;1827236;78;20872;-64
2022/06/19 11:37:22;;;;;;;1.95;1.20;;;;;;;27.90;39.48;98139.20;1827291;78;20908;-68
2022/06/19 11:40:03;;;;;;;4.83;1.20;;;;;;;28.05;37.90;98128.31;1827272;78;20915;-71
2022/06/19 11:42:36;;;;;;;3.50;1.57;;;;;;;28.16;38.04;98126.89;1826639;78;20900;-72
2022/06/19 11:45:21;;;;;;;3.35;1.40;;;;;;;28.36;37.71;98115.53;1827271;78;20860;-69
2022/06/19 11:48:01;;;;;;;4.35;1.52;;;;;;;28.52;38.26;98119.17;1827617;78;20864;-72
2022/06/19 11:50:45;;;;;;;3.62;1.20;;;;;;;28.63;37.85;98111.63;1827754;78;20856;-65
2022/06/19 11:53:29;;;;;;;3.15;1.45;;;;;;;28.82;36.94;98117.97;1827614;78;21425;-62
2022/06/19 11:56:21;;;;;;;3.98;1.30;;;;;;;28.95;38.13;98109.36;1827284;78;20923;-67
2022/06/19 11:58:59;;;;;;;2.47;1.30;;;;;;;29.18;37.62;98113.72;1822102;78;21234;-62
2022/06/19 12:01:40;;;;;;;3.33;1.55;;;;;;;29.38;37.40;98103.63;1789701;80;20827;-68
2022/06/19 12:04:15;;;;;;;3.75;1.30;;;;;;;29.49;36.29;98109.05;1789173;80;20867;-62
2022/06/19 12:06:45;;;;;;;3.02;1.17;;;;;;;29.54;34.90;98109.35;1789011;80;21005;-64
2022/06/19 12:09:39;;;;;;;6.75;1.32;;;;;;;29.50;35.27;98096.20;1789176;80;20950;-62
2022/06/19 12:12:18;;;;;;;3.22;1.25;;;;;;;29.45;35.22;98100.80;1789129;80;21185;-61